Little Rock, South Carolina
Current Conditions -  °F | °C
As of 1:35 PM on Monday 26 Jan 2015 (Local Time) from KMAO Reporting Station
Overcast Overcast  
Wind Chill: 55°   Ceiling: 3500
Heat Index: 55°   Visibility: 10mi
Dew Point: 41°   Wind: 10mph
Humidity: 58%   Direction: 270°W
Pressure: 29.59"   Gusts: NA
Location:  34.47°N, 79.41°W
Report Text: KMAO 261835Z AUTO 27009KT 10SM BKN035 BKN043 OVC065 13/05 A2959 RMK AO2
Loading
Personal Weather Stations






























Interactive Weather Map New forecast layout! Learn more

10-Day Weather Forecast

Advertisements
Track Severe Weather on mobile